Joseph, Oregon
Current Conditions -  °F | °C
As of 1:55 AM on Sunday 23 Nov 2014 (Local Time) from KLGD Reporting Station
Overcast Overcast  
Wind Chill:   Ceiling: 3400
Heat Index:   Visibility: 10mi
Dew Point: -4°   Wind: 5mph
Humidity: 56%   Direction: 50°NE
Pressure: 30.17"   Gusts: NA
Location:  45.35°N, 117.23°W
Report Text: KLGD 230955Z AUTO 05004KT 10SM OVC034 04/M04 A3017 RMK AO1
Loading
Personal Weather Stations






























Interactive Weather Map New forecast layout! Learn more

10-Day Weather Forecast

Advertisements
Track Severe Weather on mobile